createdAt,value
2023-04-28T00:00:21.966Z,5.79
2023-04-28T00:03:11.472Z,5.96
2023-04-28T00:05:39.761Z,5.98
2023-04-28T00:08:07.273Z,5.90
2023-04-28T00:10:35.337Z,5.97
2023-04-28T00:13:02.688Z,5.97
2023-04-28T00:15:30.552Z,5.96
2023-04-28T00:18:00.088Z,5.87
2023-04-28T00:20:33.827Z,5.66
2023-04-28T00:24:01.816Z,5.79
2023-04-28T00:31:28.835Z,5.86
2023-04-28T00:37:30.729Z,5.89
2023-04-28T00:40:00.455Z,5.88
2023-04-28T00:42:34.795Z,5.72
2023-04-28T00:45:07.507Z,5.92
2023-04-28T00:47:35.500Z,5.89
2023-04-28T00:50:11.744Z,5.73
2023-04-28T00:53:07.376Z,5.74
2023-04-28T00:56:07.906Z,5.73
2023-04-28T00:58:56.962Z,5.76
2023-04-28T01:01:29.601Z,5.73
2023-04-28T01:04:16.833Z,5.73
2023-04-28T01:06:48.721Z,5.80
2023-04-28T01:09:16.398Z,5.83
2023-04-28T01:12:12.193Z,5.81
2023-04-28T01:15:18.437Z,5.94
2023-04-28T01:17:48.520Z,5.92
2023-04-28T01:21:08.820Z,5.83
2023-04-28T01:23:39.647Z,5.68
2023-04-28T01:26:08.032Z,5.62
2023-04-28T01:28:47.485Z,5.81
2023-04-28T01:31:43.959Z,5.70
2023-04-28T01:34:11.485Z,5.63
2023-04-28T01:36:44.168Z,5.53
2023-04-28T01:39:15.295Z,5.62
2023-04-28T01:41:51.508Z,5.76
2023-04-28T01:45:03.609Z,5.71
2023-04-28T01:47:42.931Z,5.67
2023-04-28T01:50:11.979Z,5.64
2023-04-28T01:52:50.040Z,5.68
2023-04-28T01:55:28.590Z,5.53
2023-04-28T01:57:59.151Z,5.65
2023-04-28T02:00:33.484Z,5.69
2023-04-28T02:03:01.404Z,5.60
2023-04-28T02:05:29.691Z,5.71
2023-04-28T02:07:59.176Z,5.59
2023-04-28T02:10:27.706Z,5.67
2023-04-28T02:13:05.246Z,5.70
2023-04-28T02:15:48.686Z,5.71
2023-04-28T02:22:47.124Z,5.80
2023-04-28T02:25:14.848Z,5.83
2023-04-28T02:27:50.693Z,5.64
2023-04-28T02:30:18.366Z,5.81
2023-04-28T02:32:45.878Z,5.86
2023-04-28T02:35:19.812Z,5.93
2023-04-28T02:37:47.165Z,5.67
2023-04-28T02:40:15.503Z,5.73
2023-04-28T02:42:46.153Z,5.80
2023-04-28T02:45:45.785Z,5.77
2023-04-28T02:48:13.370Z,5.67
2023-04-28T02:50:41.297Z,5.66
2023-04-28T02:53:11.508Z,5.62
2023-04-28T02:55:39.758Z,5.67
2023-04-28T02:58:07.312Z,5.52
2023-04-28T03:00:37.423Z,5.37
2023-04-28T03:03:05.507Z,5.47
2023-04-28T03:05:34.690Z,5.44
2023-04-28T03:08:07.251Z,5.44
2023-04-28T03:10:36.868Z,5.43
2023-04-28T03:13:07.378Z,5.47
2023-04-28T03:15:36.830Z,5.46
2023-04-28T03:18:04.304Z,5.47
2023-04-28T03:20:32.565Z,5.46
2023-04-28T03:23:00.159Z,5.49
2023-04-28T03:25:27.900Z,5.50
2023-04-28T03:27:55.306Z,5.39
2023-04-28T03:30:23.582Z,5.57
2023-04-28T03:32:51.424Z,5.59
2023-04-28T03:35:19.427Z,5.56
2023-04-28T03:37:51.498Z,5.46
2023-04-28T03:40:28.708Z,5.36
2023-04-28T03:43:19.677Z,5.42
2023-04-28T03:46:10.335Z,5.38
2023-04-28T03:48:38.056Z,5.37
2023-04-28T03:51:05.893Z,5.37
2023-04-28T03:53:33.735Z,5.32
2023-04-28T03:56:01.614Z,5.28
2023-04-28T03:58:33.251Z,5.16
2023-04-28T04:01:03.283Z,5.39
2023-04-28T04:03:33.904Z,5.49
2023-04-28T04:06:16.599Z,5.33
2023-04-28T04:08:45.958Z,5.35
2023-04-28T04:11:15.894Z,5.55
2023-04-28T04:13:48.388Z,5.65
2023-04-28T04:16:28.050Z,5.68
2023-04-28T04:19:36.534Z,5.82
2023-04-28T04:22:12.523Z,5.81
2023-04-28T04:24:41.181Z,5.59
2023-04-28T04:27:25.286Z,5.95
2023-04-28T04:29:54.856Z,6.04
2023-04-28T04:32:25.405Z,6.16
2023-04-28T04:34:58.114Z,6.21
2023-04-28T04:37:29.521Z,6.37
2023-04-28T04:40:01.178Z,6.43
2023-04-28T04:42:35.768Z,6.47
2023-04-28T04:45:07.967Z,6.56
2023-04-28T04:47:38.296Z,6.61
2023-04-28T04:50:44.847Z,6.87
2023-04-28T04:54:08.369Z,7.07
2023-04-28T04:56:39.153Z,7.20
2023-04-28T04:59:18.310Z,7.39
2023-04-28T05:01:53.979Z,7.60
2023-04-28T05:04:23.278Z,7.75
2023-04-28T05:06:52.401Z,7.91
2023-04-28T05:09:20.863Z,8.08
2023-04-28T05:12:02.924Z,8.26
2023-04-28T05:14:30.510Z,8.42
2023-04-28T05:17:02.663Z,8.63
2023-04-28T05:19:35.597Z,8.93
2023-04-28T05:22:08.111Z,9.33
2023-04-28T05:24:42.374Z,9.73
2023-04-28T05:27:20.802Z,10.08
2023-04-28T05:30:04.657Z,10.46
2023-04-28T05:32:39.700Z,10.84
2023-04-28T05:35:07.652Z,11.53
2023-04-28T05:37:35.367Z,12.00
2023-04-28T05:40:08.192Z,12.24
2023-04-28T05:42:37.738Z,12.59
2023-04-28T05:45:07.020Z,13.05
2023-04-28T05:48:06.556Z,13.02
2023-04-28T05:50:55.668Z,13.55
2023-04-28T05:53:31.080Z,14.20
2023-04-28T05:56:00.761Z,14.36
2023-04-28T05:58:29.865Z,14.61
2023-04-28T06:00:59.960Z,13.81
2023-04-28T06:03:27.973Z,13.71
2023-04-28T06:05:59.416Z,14.06
2023-04-28T06:08:30.373Z,14.79
2023-04-28T06:10:58.034Z,14.24
2023-04-28T06:13:27.365Z,14.48
2023-04-28T06:15:55.289Z,14.67
2023-04-28T06:18:47.325Z,15.26
2023-04-28T06:21:21.805Z,14.76
2023-04-28T06:24:00.384Z,14.60
2023-04-28T06:26:35.751Z,15.03
2023-04-28T06:29:03.947Z,14.77
2023-04-28T06:32:09.791Z,15.18
2023-04-28T06:35:08.545Z,15.51
2023-04-28T06:37:38.759Z,15.63
2023-04-28T06:40:58.696Z,16.32
2023-04-28T06:43:52.793Z,16.22
2023-04-28T06:51:00.837Z,16.65
2023-04-28T06:53:56.800Z,16.95
2023-04-28T06:56:26.969Z,17.02
2023-04-28T06:58:59.137Z,17.28
2023-04-28T07:01:28.017Z,15.90
2023-04-28T07:03:59.543Z,15.71
2023-04-28T07:06:36.789Z,16.08
2023-04-28T07:09:04.895Z,16.11
2023-04-28T07:11:33.668Z,14.82
2023-04-28T07:14:01.330Z,15.05
2023-04-28T07:16:31.586Z,14.79
2023-04-28T07:19:01.605Z,14.55
2023-04-28T07:22:00.076Z,14.73
2023-04-28T07:24:33.375Z,16.04
2023-04-28T07:27:04.407Z,16.33
2023-04-28T07:29:34.389Z,17.10
2023-04-28T07:32:06.837Z,17.38
2023-04-28T07:34:42.184Z,16.89
2023-04-28T07:37:09.975Z,16.41
2023-04-28T07:39:42.241Z,17.55
2023-04-28T07:42:36.040Z,17.61
2023-04-28T07:45:07.739Z,16.80
2023-04-28T07:47:38.796Z,16.33
2023-04-28T07:50:14.656Z,16.84
2023-04-28T07:52:50.168Z,16.90
2023-04-28T07:55:19.627Z,16.99
2023-04-28T07:58:01.519Z,17.26
2023-04-28T08:00:33.671Z,17.78
2023-04-28T08:03:05.822Z,17.70
2023-04-28T08:05:38.592Z,18.04
2023-04-28T08:08:15.270Z,18.12
2023-04-28T08:10:58.505Z,17.80
2023-04-28T08:13:49.758Z,18.17
2023-04-28T08:16:23.904Z,18.20
2023-04-28T08:18:56.103Z,18.74
2023-04-28T08:21:54.819Z,18.84
2023-04-28T08:24:52.969Z,19.65
2023-04-28T08:27:50.277Z,19.41
2023-04-28T08:30:50.701Z,19.98
2023-04-28T08:33:21.591Z,20.34
2023-04-28T08:35:59.305Z,20.50
2023-04-28T08:38:40.447Z,20.57
2023-04-28T08:41:11.669Z,20.63
2023-04-28T08:43:48.678Z,21.12
2023-04-28T08:46:18.823Z,20.35
2023-04-28T08:49:01.847Z,19.09
2023-04-28T08:51:47.929Z,19.96
2023-04-28T08:54:26.693Z,19.99
2023-04-28T08:56:59.630Z,19.28
2023-04-28T08:59:28.266Z,19.42
2023-04-28T09:02:06.259Z,19.04
2023-04-28T09:04:37.736Z,20.30
2023-04-28T09:07:13.995Z,20.32
2023-04-28T09:10:24.480Z,20.16
2023-04-28T09:13:26.224Z,20.69
2023-04-28T09:16:03.098Z,20.17
2023-04-28T09:18:34.689Z,18.94
2023-04-28T09:21:08.551Z,18.31
2023-04-28T09:23:52.499Z,19.18
2023-04-28T09:26:33.354Z,19.11
2023-04-28T09:29:14.460Z,19.39
2023-04-28T09:32:12.417Z,19.07
2023-04-28T09:35:14.951Z,19.57
2023-04-28T09:37:59.083Z,20.41
2023-04-28T09:40:27.881Z,20.95
2023-04-28T09:43:15.309Z,21.44
2023-04-28T09:45:54.818Z,19.67
2023-04-28T09:48:36.897Z,20.12
2023-04-28T09:51:12.364Z,20.91
2023-04-28T09:53:53.173Z,20.43
2023-04-28T09:56:51.959Z,21.08
2023-04-28T09:59:23.694Z,20.72
2023-04-28T10:01:58.408Z,21.00
2023-04-28T10:04:52.044Z,21.12
2023-04-28T10:07:43.328Z,20.77
2023-04-28T10:10:40.882Z,20.29
2023-04-28T10:13:47.047Z,20.88
2023-04-28T10:16:19.750Z,20.19
2023-04-28T10:18:49.806Z,20.48
2023-04-28T10:21:25.440Z,21.37
2023-04-28T10:24:11.541Z,20.61
2023-04-28T10:27:04.717Z,20.13
2023-04-28T10:29:37.036Z,19.65
2023-04-28T10:32:29.444Z,19.17
2023-04-28T10:35:35.602Z,18.55
2023-04-28T10:38:15.683Z,18.95
2023-04-28T10:41:06.402Z,19.73
2023-04-28T10:47:19.985Z,21.16
2023-04-28T10:50:39.228Z,20.77
2023-04-28T10:53:18.195Z,20.53
2023-04-28T10:56:33.173Z,21.34
2023-04-28T10:59:43.291Z,21.01
2023-04-28T11:02:49.787Z,22.03
2023-04-28T11:06:51.727Z,21.46
2023-04-28T11:09:47.061Z,21.22
2023-04-28T11:13:40.058Z,21.03
2023-04-28T11:16:25.646Z,22.02
2023-04-28T11:19:16.095Z,22.10
2023-04-28T11:23:04.863Z,21.69
2023-04-28T11:26:00.004Z,21.10
2023-04-28T11:28:29.291Z,20.28
2023-04-28T11:31:21.101Z,20.32
2023-04-28T11:34:22.018Z,20.26
2023-04-28T11:36:54.651Z,19.85
2023-04-28T11:39:53.748Z,19.70
2023-04-28T11:42:31.223Z,19.98
2023-04-28T11:46:13.917Z,20.82
2023-04-28T11:49:19.713Z,21.11
2023-04-28T11:55:07.232Z,19.65
2023-04-28T11:57:45.972Z,18.94
2023-04-28T12:00:37.760Z,18.35
2023-04-28T12:03:20.700Z,18.74
2023-04-28T12:05:54.469Z,19.68
2023-04-28T12:08:41.298Z,20.69
2023-04-28T12:11:36.379Z,21.05
2023-04-28T12:15:29.193Z,21.09
2023-04-28T12:23:40.925Z,20.29
2023-04-28T12:30:01.506Z,20.66
2023-04-28T12:32:57.392Z,20.91
2023-04-28T12:36:10.940Z,20.71
2023-04-28T12:38:58.539Z,20.94
2023-04-28T12:41:30.455Z,20.98
2023-04-28T12:44:07.386Z,20.85
2023-04-28T12:46:50.176Z,20.95
2023-04-28T12:49:39.136Z,21.41
2023-04-28T12:52:29.004Z,21.51
2023-04-28T12:55:06.652Z,21.50
2023-04-28T12:57:53.010Z,21.17
2023-04-28T13:00:29.255Z,21.27
2023-04-28T13:03:03.712Z,20.71
2023-04-28T13:06:17.662Z,20.80
2023-04-28T13:08:53.410Z,21.31
2023-04-28T13:11:32.729Z,20.80
2023-04-28T13:14:09.624Z,20.82
2023-04-28T13:16:43.579Z,20.76
2023-04-28T13:19:20.422Z,20.57
2023-04-28T13:21:54.046Z,20.85
2023-04-28T13:24:27.366Z,20.92
2023-04-28T13:27:00.111Z,21.12
2023-04-28T13:29:34.602Z,21.64
2023-04-28T13:32:29.301Z,21.67
2023-04-28T13:34:59.243Z,21.08
2023-04-28T13:37:32.113Z,21.10
2023-04-28T13:40:00.534Z,20.08
2023-04-28T13:42:31.375Z,20.13
2023-04-28T13:45:10.166Z,20.67
2023-04-28T13:47:51.354Z,21.35
2023-04-28T13:50:32.798Z,20.77
2023-04-28T13:53:53.188Z,20.49
2023-04-28T13:56:40.542Z,21.48
2023-04-28T13:59:32.029Z,21.63
2023-04-28T14:02:18.430Z,20.99
2023-04-28T14:04:54.044Z,20.99
2023-04-28T14:07:35.490Z,21.21
2023-04-28T14:10:12.035Z,21.45
2023-04-28T14:13:02.424Z,21.32
2023-04-28T14:15:51.208Z,21.33
2023-04-28T14:18:56.090Z,20.96
2023-04-28T14:21:26.351Z,20.78
2023-04-28T14:23:54.367Z,20.58
2023-04-28T14:26:37.553Z,20.53
2023-04-28T14:29:19.126Z,20.89
2023-04-28T14:32:16.178Z,20.92
2023-04-28T14:35:38.540Z,20.69
2023-04-28T14:38:38.232Z,20.69
2023-04-28T14:41:17.671Z,20.84
2023-04-28T14:43:46.635Z,20.53
2023-04-28T14:46:14.709Z,20.83
2023-04-28T14:48:59.760Z,20.86
2023-04-28T14:51:38.316Z,21.06
2023-04-28T14:54:10.534Z,20.90
2023-04-28T14:56:41.709Z,20.64
2023-04-28T14:59:24.571Z,20.63
2023-04-28T15:02:21.880Z,20.52
2023-04-28T15:04:49.854Z,20.18
2023-04-28T15:07:17.966Z,19.95
2023-04-28T15:09:46.617Z,20.01
2023-04-28T15:12:16.059Z,19.69
2023-04-28T15:14:46.439Z,19.79
2023-04-28T15:17:16.572Z,19.77
2023-04-28T15:19:45.942Z,19.77
2023-04-28T15:22:43.766Z,19.64
2023-04-28T15:25:14.077Z,19.61
2023-04-28T15:27:52.799Z,19.50
2023-04-28T15:30:24.254Z,19.23
2023-04-28T15:33:00.276Z,19.39
2023-04-28T15:35:36.997Z,19.18
2023-04-28T15:38:07.117Z,18.97
2023-04-28T15:40:44.028Z,18.45
2023-04-28T15:43:17.210Z,18.37
2023-04-28T15:45:50.060Z,18.46
2023-04-28T15:48:27.792Z,18.44
2023-04-28T15:50:57.029Z,18.60
2023-04-28T15:53:28.912Z,18.31
2023-04-28T15:55:59.678Z,18.27
2023-04-28T15:58:29.178Z,18.30
2023-04-28T16:01:02.792Z,18.00
2023-04-28T16:03:37.971Z,17.83
2023-04-28T16:06:37.931Z,17.73
2023-04-28T16:09:11.506Z,17.69
2023-04-28T16:11:45.195Z,17.45
2023-04-28T16:14:20.049Z,17.17
2023-04-28T16:16:52.932Z,17.21
2023-04-28T16:19:26.373Z,17.10
2023-04-28T16:21:56.949Z,16.94
2023-04-28T16:24:31.705Z,16.94
2023-04-28T16:27:00.078Z,16.97
2023-04-28T16:29:44.412Z,17.03
2023-04-28T16:32:15.963Z,17.04
2023-04-28T16:34:46.955Z,16.89
2023-04-28T16:37:45.994Z,16.69
2023-04-28T16:40:22.541Z,16.32
2023-04-28T16:42:53.190Z,16.06
2023-04-28T16:45:21.115Z,16.03
2023-04-28T16:47:53.966Z,16.05
2023-04-28T16:50:24.662Z,16.04
2023-04-28T16:52:53.388Z,15.90
2023-04-28T16:55:21.839Z,15.67
2023-04-28T16:57:57.162Z,15.52
2023-04-28T17:00:26.573Z,15.35
2023-04-28T17:03:08.106Z,15.22
2023-04-28T17:05:38.772Z,15.12
2023-04-28T17:08:08.998Z,15.04
2023-04-28T17:10:45.198Z,14.82
2023-04-28T17:13:16.965Z,14.92
2023-04-28T17:15:46.430Z,15.10
2023-04-28T17:18:17.938Z,15.20
2023-04-28T17:20:50.794Z,15.16
2023-04-28T17:23:30.261Z,15.21
2023-04-28T17:25:59.008Z,15.24
2023-04-28T17:28:37.078Z,15.13
2023-04-28T17:31:06.644Z,14.93
2023-04-28T17:33:34.206Z,14.73
2023-04-28T17:36:03.872Z,14.67
2023-04-28T17:38:33.078Z,14.57
2023-04-28T17:41:01.598Z,14.55
2023-04-28T17:43:29.921Z,14.47
2023-04-28T17:46:00.355Z,14.48
2023-04-28T17:48:27.793Z,14.43
2023-04-28T17:50:56.032Z,14.40
2023-04-28T17:53:23.903Z,14.38
2023-04-28T17:55:52.156Z,14.36
2023-04-28T17:58:21.467Z,14.18
2023-04-28T18:00:49.527Z,14.10
2023-04-28T18:03:18.192Z,13.90
2023-04-28T18:06:08.414Z,13.79
2023-04-28T18:08:37.158Z,13.77
2023-04-28T18:11:09.892Z,13.87
2023-04-28T18:13:37.617Z,13.61
2023-04-28T18:16:06.453Z,13.78
2023-04-28T18:18:37.749Z,13.79
2023-04-28T18:21:05.787Z,13.65
2023-04-28T18:23:34.786Z,13.62
2023-04-28T18:26:05.022Z,13.72
2023-04-28T18:28:43.801Z,13.73
2023-04-28T18:31:15.132Z,13.74
2023-04-28T18:33:53.521Z,13.72
2023-04-28T18:37:19.307Z,13.57
2023-04-28T18:40:49.305Z,13.70
2023-04-28T18:43:47.922Z,13.70
2023-04-28T18:46:22.600Z,13.32
2023-04-28T18:50:01.167Z,13.34
2023-04-28T18:52:54.156Z,13.14
2023-04-28T18:55:34.548Z,13.09
2023-04-28T18:58:22.705Z,12.97
2023-04-28T19:01:02.649Z,13.00
2023-04-28T19:04:33.555Z,12.98
2023-04-28T19:07:02.660Z,12.95
2023-04-28T19:09:47.235Z,13.03
2023-04-28T19:12:21.189Z,13.03
2023-04-28T19:14:50.288Z,12.99
2023-04-28T19:17:28.169Z,12.91
2023-04-28T19:20:22.214Z,12.79
2023-04-28T19:22:56.785Z,12.74
2023-04-28T19:25:37.000Z,12.80
2023-04-28T19:28:38.333Z,12.86
2023-04-28T19:31:48.706Z,12.85
2023-04-28T19:34:37.523Z,12.99
2023-04-28T19:37:11.637Z,12.80
2023-04-28T19:39:52.510Z,12.67
2023-04-28T19:42:26.765Z,12.78
2023-04-28T19:45:31.394Z,12.62
2023-04-28T19:48:05.065Z,12.45
2023-04-28T19:50:34.620Z,12.59
2023-04-28T19:53:32.832Z,12.78
2023-04-28T19:56:02.718Z,12.82
2023-04-28T19:58:38.958Z,12.76
2023-04-28T20:01:31.482Z,12.77
2023-04-28T20:04:53.224Z,12.76
2023-04-28T20:07:50.670Z,12.78
2023-04-28T20:10:27.902Z,12.73
2023-04-28T20:13:02.446Z,12.79
2023-04-28T20:15:48.157Z,12.73
2023-04-28T20:22:38.759Z,12.67
2023-04-28T20:25:39.626Z,12.65
2023-04-28T20:28:44.480Z,12.66
2023-04-28T20:31:16.997Z,12.53
2023-04-28T20:33:49.669Z,12.48
2023-04-28T20:36:28.990Z,12.52
2023-04-28T20:39:02.423Z,12.55
2023-04-28T20:41:33.858Z,12.40
2023-04-28T20:44:05.709Z,12.52
2023-04-28T20:46:37.613Z,12.43
2023-04-28T20:49:09.289Z,12.46
2023-04-28T20:52:10.898Z,12.44
2023-04-28T20:55:04.702Z,12.44
2023-04-28T20:57:49.764Z,12.38
2023-04-28T21:00:23.422Z,12.39
2023-04-28T21:02:54.012Z,12.29
2023-04-28T21:06:42.281Z,12.37
2023-04-28T21:09:46.382Z,12.44
2023-04-28T21:12:26.426Z,12.41
2023-04-28T21:15:23.306Z,12.37
2023-04-28T21:18:47.908Z,12.35
2023-04-28T21:21:20.108Z,12.40
2023-04-28T21:23:50.997Z,12.38
2023-04-28T21:26:28.842Z,12.36
2023-04-28T21:32:16.016Z,12.31
2023-04-28T21:34:52.833Z,12.27
2023-04-28T21:38:10.348Z,12.34
2023-04-28T21:40:48.859Z,12.30
2023-04-28T21:43:23.322Z,12.38
2023-04-28T21:45:52.470Z,12.42
2023-04-28T21:48:20.278Z,12.44
2023-04-28T21:50:49.567Z,12.48
2023-04-28T21:53:17.631Z,12.49
2023-04-28T21:55:47.499Z,12.45
2023-04-28T21:58:17.806Z,12.49
2023-04-28T22:00:47.581Z,12.41
2023-04-28T22:03:16.408Z,12.50
2023-04-28T22:05:46.312Z,12.43
2023-04-28T22:08:14.761Z,12.50
2023-04-28T22:10:44.199Z,12.48
2023-04-28T22:13:19.740Z,12.44
2023-04-28T22:15:53.193Z,12.43
2023-04-28T22:18:20.961Z,12.40
2023-04-28T22:20:50.895Z,12.46
2023-04-28T22:23:22.156Z,12.46
2023-04-28T22:25:49.587Z,12.46
2023-04-28T22:28:17.439Z,12.48
2023-04-28T22:30:46.939Z,12.40
2023-04-28T22:33:14.662Z,12.46
2023-04-28T22:35:45.740Z,12.50
2023-04-28T22:38:40.849Z,12.48
2023-04-28T22:41:10.347Z,12.56
2023-04-28T22:43:44.666Z,12.49
2023-04-28T22:46:16.149Z,12.49
2023-04-28T22:48:43.998Z,12.45
2023-04-28T22:51:12.195Z,12.47
2023-04-28T22:53:40.921Z,12.46
2023-04-28T22:56:08.483Z,12.52
2023-04-28T22:58:46.009Z,12.40
2023-04-28T23:01:16.622Z,12.44
2023-04-28T23:03:46.660Z,12.40
2023-04-28T23:06:14.480Z,12.34
2023-04-28T23:08:42.565Z,12.42
2023-04-28T23:11:10.092Z,12.44
2023-04-28T23:13:39.455Z,12.46
2023-04-28T23:16:30.814Z,12.45
2023-04-28T23:19:03.453Z,12.34
2023-04-28T23:21:33.872Z,12.37
2023-04-28T23:24:22.025Z,12.41
2023-04-28T23:27:17.487Z,12.46
2023-04-28T23:29:58.638Z,12.41
2023-04-28T23:32:32.209Z,12.39
2023-04-28T23:35:29.139Z,12.33
2023-04-28T23:38:13.840Z,12.26
2023-04-28T23:40:47.060Z,12.18
2023-04-28T23:43:37.660Z,12.23
2023-04-28T23:46:14.542Z,12.26
2023-04-28T23:49:20.189Z,12.34
2023-04-28T23:51:52.833Z,12.28
2023-04-28T23:54:23.432Z,12.24
2023-04-28T23:57:02.904Z,12.11
2023-04-28T23:59:33.952Z,12.22
